Albuquerque (West), New Mexico
Current Conditions -  °F | °C
As of 8:49 PM on Saturday 25 Oct 2014 (Local Time) from KAEG Reporting Station
Clear Clear  
Wind Chill: 61°   Ceiling: Unl
Heat Index: 61°   Visibility: 10mi
Dew Point: 36°   Wind: 10mph
Humidity: 39%   Direction: 190°S
Pressure: 30.21"   Gusts: NA
Location:  35.15°N, 106.8°W
Report Text: KAEG 260249Z 19009KT 10SM SKC 16/02 A3021
Loading
Personal Weather Stations






























Interactive Weather Map New forecast layout! Learn more

10-Day Weather Forecast

Advertisements
Track Severe Weather on mobile